Time;durP1;ratioP1;P1;durP2;ratioP2;P2;SDS_P1;SDS_P2;PMS_P1;PMS_P2;Temp;Humidity;BMP_temperature;BMP_pressure;BME280_temperature;BME280_humidity;BME280_pressure;Samples;Min_cycle;Max_cycle;Signal;HPM_P1;HPM_P2
2023/04/25 00:02:11;;;;;;;;;4.00;4.00;;;;;12.50;59.96;100724.38;5091600;27;47986;-68
2023/04/25 00:04:37;;;;;;;;;3.25;3.25;;;;;12.51;60.20;100732.28;5091184;27;45421;-68
2023/04/25 00:07:04;;;;;;;;;3.75;1.00;;;;;12.53;60.52;100745.41;5075438;27;45704;-74
2023/04/25 00:09:30;;;;;;;;;4.00;3.25;;;;;12.49;60.15;100743.66;5091378;27;45756;-71
2023/04/25 00:11:55;;;;;;;;;6.50;3.75;;;;;12.34;60.48;100721.00;5075969;28;45969;-69
2023/04/25 00:14:22;;;;;;;;;4.50;3.75;;;;;12.40;60.76;100735.84;5075787;28;45898;-78
2023/04/25 00:16:48;;;;;;;;;6.25;4.50;;;;;12.34;61.05;100725.34;5091445;27;45507;-75
2023/04/25 00:19:14;;;;;;;;;5.00;3.67;;;;;12.38;60.90;100732.34;5074905;28;45642;-71
2023/04/25 00:21:42;;;;;;;;;4.00;3.50;;;;;12.39;60.53;100729.72;5054920;27;45552;-71
2023/04/25 00:24:08;;;;;;;;;5.25;4.00;;;;;12.25;60.33;100711.41;5055057;28;45346;-70
2023/04/25 00:26:35;;;;;;;;;4.50;3.25;;;;;12.08;60.85;100685.25;5066458;28;45650;-77
2023/04/25 00:29:01;;;;;;;;;4.00;4.00;;;;;12.28;60.56;100721.88;5087341;27;45466;-76
2023/04/25 00:31:28;;;;;;;;;7.75;3.75;;;;;12.15;60.71;100695.69;5071777;27;45547;-69
2023/04/25 00:33:54;;;;;;;;;4.75;4.75;;;;;12.29;60.92;100722.75;5063915;27;45484;-75
2023/04/25 00:36:20;;;;;;;;;6.25;4.75;;;;;12.30;60.39;100730.63;5072626;27;45774;-81
2023/04/25 00:38:46;;;;;;;;;10.25;6.00;;;;;12.28;61.01;100732.38;5072799;27;45385;-75
2023/04/25 00:41:12;;;;;;;;;5.75;5.00;;;;;12.28;61.85;100736.78;5065667;28;46809;-70
2023/04/25 00:43:39;;;;;;;;;5.50;5.25;;;;;12.21;61.04;100716.69;5071003;27;45599;-69
2023/04/25 00:46:05;;;;;;;;;5.75;5.00;;;;;12.24;60.99;100724.53;5071591;27;45533;-73
2023/04/25 00:48:30;;;;;;;;;5.75;5.00;;;;;12.27;60.94;100729.78;5071991;27;45678;-74
2023/04/25 00:50:58;;;;;;;;;5.50;4.50;;;;;12.27;61.04;100716.66;5076545;27;46630;-68
2023/04/25 00:53:28;;;;;;;;;7.25;5.50;;;;;12.13;61.17;100695.72;5062280;27;45522;-73
2023/04/25 00:55:54;;;;;;;;;6.50;4.00;;;;;12.22;60.76;100727.19;5070326;27;45392;-73
2023/04/25 00:58:21;;;;;;;;;6.00;5.25;;;;;12.13;60.66;100716.72;5053564;27;45348;-72
2023/04/25 01:00:49;;;;;;;;;6.25;5.00;;;;;12.14;60.57;100728.97;5089594;27;46478;-70
2023/04/25 01:03:21;;;;;;;;;5.50;5.00;;;;;12.12;60.96;100724.59;5084445;27;45619;-70
2023/04/25 01:05:47;;;;;;;;;6.00;4.00;;;;;12.11;60.75;100730.75;5057270;27;45430;-71
2023/04/25 01:08:14;;;;;;;;;4.00;4.00;;;;;12.09;60.58;100730.75;5066234;27;45590;-70
2023/04/25 01:10:40;;;;;;;;;6.00;3.25;;;;;12.12;60.91;100733.34;5059701;28;48025;-74
2023/04/25 01:13:08;;;;;;;;;8.00;6.00;;;;;12.12;60.81;100730.72;5072263;28;45386;-74
2023/04/25 01:15:35;;;;;;;;;6.00;6.00;;;;;12.12;60.96;100720.22;5053590;28;45350;-72
2023/04/25 01:18:01;;;;;;;;;7.00;5.00;;;;;12.14;60.94;100720.22;5065592;28;45462;-74
2023/04/25 01:20:29;;;;;;;;;9.00;4.00;;;;;12.23;60.56;100728.06;5067848;27;45426;-69
2023/04/25 01:22:55;;;;;;;;;8.00;6.00;;;;;12.23;61.06;100723.66;5070136;27;45717;-74
2023/04/25 01:25:22;;;;;;;;;7.00;6.00;;;;;12.18;61.12;100706.19;5060037;27;45568;-73
2023/04/25 01:27:48;;;;;;;;;4.50;4.50;;;;;12.25;61.05;100721.03;5078109;27;45420;-73
2023/04/25 01:30:14;;;;;;;;;9.25;8.00;;;;;12.14;61.37;100700.09;5063296;27;46591;-69
2023/04/25 01:32:41;;;;;;;;;8.25;5.75;;;;;12.14;61.10;100710.59;5063168;28;45463;-70
2023/04/25 01:35:09;;;;;;;;;13.50;9.75;;;;;12.18;61.07;100721.97;5078079;27;45370;-68
2023/04/25 01:37:39;;;;;;;;;5.75;5.00;;;;;12.15;61.41;100725.47;5057009;27;45480;-72
2023/04/25 01:40:07;;;;;;;;;10.75;8.75;;;;;12.11;61.67;100723.72;5089859;27;46803;-69
2023/04/25 01:42:35;;;;;;;;;8.25;7.75;;;;;12.08;61.54;100723.75;5075347;27;45326;-68
2023/04/25 01:45:01;;;;;;;;;5.00;5.00;;;;;11.90;61.60;100694.94;5077944;27;45543;-71
2023/04/25 01:47:27;;;;;;;;;10.50;6.75;;;;;11.88;61.49;100687.94;5075294;27;45359;-70
2023/04/25 01:49:53;;;;;;;;;9.00;7.25;;;;;11.90;61.60;100697.56;5088446;27;45767;-70
2023/04/25 01:52:18;;;;;;;;;7.25;6.75;;;;;11.99;61.55;100718.53;5073513;28;45525;-74
2023/04/25 01:54:45;;;;;;;;;9.00;7.00;;;;;11.96;61.98;100729.94;5053290;27;45481;-70
2023/04/25 01:57:11;;;;;;;;;9.00;5.75;;;;;11.98;61.57;100724.66;5063811;28;45545;-69
2023/04/25 01:59:37;;;;;;;;;11.25;7.25;;;;;11.94;61.96;100718.56;5055381;27;45464;-68
2023/04/25 02:02:03;;;;;;;;;10.00;6.00;;;;;11.99;62.00;100726.41;5053097;28;45641;-70
2023/04/25 02:04:30;;;;;;;;;10.50;8.75;;;;;11.94;61.49;100718.56;5071018;27;45562;-68
2023/04/25 02:06:55;;;;;;;;;6.50;5.50;;;;;12.01;61.54;100722.03;5093697;27;45451;-72
2023/04/25 02:09:21;;;;;;;;;9.00;7.75;;;;;12.03;61.53;100729.03;5077137;28;46021;-69
2023/04/25 02:11:47;;;;;;;;;8.00;8.00;;;;;12.02;61.28;100723.78;5075897;28;45464;-70
2023/04/25 02:14:12;;;;;;;;;7.00;6.00;;;;;12.01;61.37;100720.28;5077770;27;45359;-70
2023/04/25 02:16:38;;;;;;;;;8.25;8.00;;;;;11.94;61.29;100707.19;5076390;27;45513;-72
2023/04/25 02:19:04;;;;;;;;;8.00;7.75;;;;;12.03;61.50;100722.88;5090229;27;46876;-70
2023/04/25 02:21:30;;;;;;;;;9.00;6.00;;;;;12.05;60.94;100743.03;5072491;27;45531;-72
2023/04/25 02:23:56;;;;;;;;;7.75;4.50;;;;;12.04;61.02;100735.13;5091493;27;45782;-67
2023/04/25 02:26:23;;;;;;;;;14.50;9.25;;;;;12.02;61.26;100737.75;5077077;28;45446;-69
2023/04/25 02:28:49;;;;;;;;;7.25;7.25;;;;;12.01;61.51;100729.91;5057178;27;45532;-68
2023/04/25 02:31:15;;;;;;;;;6.50;6.50;;;;;12.02;61.91;100729.03;5054767;28;45444;-70
2023/04/25 02:33:41;;;;;;;;;5.75;5.75;;;;;12.03;61.40;100721.16;5087291;27;45424;-69
2023/04/25 02:36:07;;;;;;;;;11.00;8.00;;;;;11.95;61.26;100706.31;5079464;27;45530;-71
2023/04/25 02:38:33;;;;;;;;;7.75;6.25;;;;;12.03;61.29;100729.03;5077137;27;46227;-72
2023/04/25 02:40:59;;;;;;;;;12.50;10.00;;;;;11.95;61.61;100719.44;5077114;27;45451;-69
2023/04/25 02:43:24;;;;;;;;;9.25;8.50;;;;;11.87;61.89;100715.06;5080948;27;45801;-68
2023/04/25 02:45:50;;;;;;;;;9.50;7.00;;;;;11.93;61.79;100716.78;5081084;27;45379;-69
2023/04/25 02:48:15;;;;;;;;;8.50;7.50;;;;;11.90;61.55;100732.56;5080599;27;45490;-73
2023/04/25 02:50:41;;;;;;;;;9.50;8.00;;;;;11.88;61.46;100737.81;5078662;27;45801;-68
2023/04/25 02:53:06;;;;;;;;;9.25;6.25;;;;;11.86;61.71;100733.41;5080495;27;45311;-72
2023/04/25 02:55:32;;;;;;;;;10.00;7.50;;;;;11.96;61.62;100752.66;5076369;27;45595;-70
2023/04/25 02:58:01;;;;;;;;;8.50;8.50;;;;;11.97;61.85;100764.91;5092208;27;46476;-68
2023/04/25 03:00:27;;;;;;;;;10.25;8.00;;;;;11.93;62.00;100747.41;5093515;27;45456;-67
2023/04/25 03:02:52;;;;;;;;;10.00;7.75;;;;;11.98;61.48;100764.03;5080421;27;45349;-70
2023/04/25 03:05:18;;;;;;;;;8.25;7.50;;;;;11.87;61.57;100740.47;5077570;27;45410;-73
2023/04/25 03:07:44;;;;;;;;;8.25;7.50;;;;;11.88;61.34;100753.56;5074176;27;45837;-70
2023/04/25 03:10:10;;;;;;;;;13.00;9.00;;;;;11.96;61.28;100756.19;5066233;28;46781;-70
2023/04/25 03:12:39;;;;;;;;;8.50;6.75;;;;;11.93;61.63;100743.03;5071596;27;45374;-74
2023/04/25 03:15:05;;;;;;;;;14.25;9.50;;;;;11.96;61.37;100750.03;5076098;27;45446;-73
2023/04/25 03:17:31;;;;;;;;;7.25;7.25;;;;;11.95;61.50;100751.78;5075022;27;46774;-72
2023/04/25 03:19:57;;;;;;;;;11.00;10.75;;;;;11.88;62.10;100736.94;5093653;27;45816;-69
2023/04/25 03:22:23;;;;;;;;;11.50;9.75;;;;;11.90;61.79;100742.19;5080030;27;45567;-72
2023/04/25 03:24:49;;;;;;;;;12.75;10.75;;;;;11.83;61.53;100739.53;5080024;27;45568;-74
2023/04/25 03:27:15;;;;;;;;;10.50;9.25;;;;;11.74;61.91;100730.81;5073541;27;45478;-73
2023/04/25 03:29:42;;;;;;;;;10.75;8.00;;;;;11.74;61.95;100742.19;5069214;27;45508;-71
2023/04/25 03:32:07;;;;;;;;;6.25;6.25;;;;;11.66;61.80;100726.47;5073512;27;45842;-69
2023/04/25 03:34:33;;;;;;;;;9.50;7.25;;;;;11.82;62.25;100752.69;5075857;27;45382;-73
2023/04/25 03:36:59;;;;;;;;;14.50;9.75;;;;;11.68;61.85;100736.97;5108081;27;46851;-68
2023/04/25 03:39:25;;;;;;;;;8.25;6.75;;;;;11.70;62.02;100734.31;5076035;27;45541;-73
2023/04/25 03:41:51;;;;;;;;;14.25;10.00;;;;;11.71;62.23;100742.22;5073844;27;45884;-70
2023/04/25 03:44:17;;;;;;;;;9.75;8.00;;;;;11.53;61.98;100723.88;5075166;27;45395;-69
2023/04/25 03:46:43;;;;;;;;;11.25;10.25;;;;;11.54;62.58;100734.38;5060806;27;46664;-69
2023/04/25 03:49:09;;;;;;;;;13.25;10.00;;;;;11.60;62.58;100759.72;5076743;27;45480;-68
2023/04/25 03:51:35;;;;;;;;;8.25;8.25;;;;;11.55;62.72;100753.59;5080054;27;45155;-73
2023/04/25 03:54:00;;;;;;;;;12.25;9.00;;;;;11.51;62.90;100755.38;5065363;27;45603;-73
2023/04/25 03:56:26;;;;;;;;;8.25;6.75;;;;;11.44;63.18;100745.78;5078893;27;45417;-73
2023/04/25 03:58:52;;;;;;;;;11.00;10.00;;;;;11.49;62.44;100757.13;5078046;27;45437;-74
2023/04/25 04:01:17;;;;;;;;;17.50;10.50;;;;;11.19;62.68;100708.19;5078342;27;45464;-72
2023/04/25 04:03:43;;;;;;;;;15.50;9.25;;;;;11.38;62.73;100743.16;5080257;27;45520;-72
2023/04/25 04:06:09;;;;;;;;;11.25;10.00;;;;;11.37;62.90;100747.53;5095393;27;45459;-71
2023/04/25 04:08:34;;;;;;;;;13.25;10.25;;;;;11.35;62.75;100745.78;5078223;27;45497;-74
2023/04/25 04:11:00;;;;;;;;;12.25;11.50;;;;;11.34;62.95;100747.53;5078239;27;45812;-70
2023/04/25 04:13:27;;;;;;;;;15.50;11.75;;;;;11.37;63.24;100752.78;5076083;27;45580;-74
2023/04/25 04:15:52;;;;;;;;;14.00;10.00;;;;;11.39;63.45;100766.75;5075239;27;45579;-73
2023/04/25 04:18:18;;;;;;;;;10.00;10.00;;;;;11.31;63.13;100738.78;5075173;27;45755;-73
2023/04/25 04:20:44;;;;;;;;;10.50;8.75;;;;;11.34;63.10;100752.78;5075457;27;45425;-72
2023/04/25 04:23:12;;;;;;;;;12.00;10.75;;;;;11.39;62.96;100758.00;5073214;27;45682;-69
2023/04/25 04:25:39;;;;;;;;;13.50;10.25;;;;;11.37;62.95;100763.25;5073358;27;47165;-71
2023/04/25 04:28:05;;;;;;;;;10.50;10.25;;;;;11.43;62.75;100778.09;5062853;27;45433;-72
2023/04/25 04:30:33;;;;;;;;;14.00;11.25;;;;;11.43;62.66;100771.09;5075342;27;45559;-71
2023/04/25 04:33:00;;;;;;;;;9.50;9.50;;;;;11.44;63.18;100772.88;5075597;27;45859;-68
2023/04/25 04:35:26;;;;;;;;;10.25;10.00;;;;;11.36;62.80;100763.25;5090659;27;45719;-72
2023/04/25 04:37:51;;;;;;;;;9.75;9.75;;;;;11.52;62.69;100798.22;5075031;27;45326;-72
2023/04/25 04:40:17;;;;;;;;;8.25;8.25;;;;;11.54;62.84;100793.84;5090766;27;45518;-72
2023/04/25 04:42:47;;;;;;;;;11.00;11.00;;;;;11.54;62.42;100785.97;5074868;27;46024;-70
2023/04/25 04:45:13;;;;;;;;;11.50;8.00;;;;;11.56;62.59;100792.97;5072425;27;47916;-69
2023/04/25 04:47:49;;;;;;;;;11.00;9.75;;;;;11.58;62.92;100795.56;5074691;27;45423;-68
2023/04/25 04:50:16;;;;;;;;;9.25;8.50;;;;;11.51;62.44;100780.72;5095084;27;45375;-76
2023/04/25 04:52:42;;;;;;;;;10.25;9.25;;;;;11.62;62.71;100802.56;5076721;27;45480;-70
2023/04/25 04:55:08;;;;;;;;;11.25;11.25;;;;;11.64;62.29;100808.69;5089895;27;45685;-70
2023/04/25 04:57:35;;;;;;;;;12.75;10.50;;;;;11.65;62.38;100807.78;5070149;28;45469;-68
2023/04/25 05:00:01;;;;;;;;;14.00;8.50;;;;;11.65;62.54;100813.03;5060577;28;45504;-76
2023/04/25 05:02:27;;;;;;;;;9.00;9.00;;;;;11.67;62.84;100811.28;5077482;27;45297;-69
2023/04/25 05:04:57;;;;;;;;;13.00;10.25;;;;;11.64;62.48;100811.31;5068058;27;46582;-71
2023/04/25 05:07:26;;;;;;;;;16.00;8.75;;;;;11.71;62.60;100823.53;5063258;27;45452;-77
2023/04/25 05:09:52;;;;;;;;;13.50;9.00;;;;;11.73;62.40;100834.91;5075878;27;45441;-75
2023/04/25 05:12:18;;;;;;;;;12.25;10.50;;;;;11.52;62.26;100791.22;5074278;27;46402;-78
2023/04/25 05:14:44;;;;;;;;;9.50;7.50;;;;;11.76;62.36;100827.03;5072112;28;45729;-67
2023/04/25 05:17:32;;;;;;;;;11.75;8.75;;;;;11.67;62.44;100814.81;5062175;27;45630;-72
2023/04/25 05:20:00;;;;;;;;;10.00;8.25;;;;;11.71;62.86;100828.78;5059564;27;45374;-77
2023/04/25 05:22:26;;;;;;;;;9.25;8.75;;;;;11.74;62.16;100838.41;5059689;27;45432;-75
2023/04/25 05:25:07;;;;;;;;;11.75;10.50;;;;;11.83;62.12;100859.41;5061836;27;48186;-74
2023/04/25 05:27:33;;;;;;;;;10.00;10.00;;;;;11.84;62.00;100856.78;5075448;27;45391;-79
2023/04/25 05:29:59;;;;;;;;;12.75;10.00;;;;;11.84;62.22;100866.38;5079612;27;45493;-74
2023/04/25 05:32:24;;;;;;;;;11.00;9.50;;;;;11.68;62.21;100828.81;5065036;27;45438;-78
2023/04/25 05:34:51;;;;;;;;;11.50;10.00;;;;;11.90;62.31;100860.28;5070542;27;46172;-74
2023/04/25 05:37:17;;;;;;;;;17.25;11.00;;;;;11.88;62.49;100876.91;5087766;27;45530;-74
2023/04/25 05:39:42;;;;;;;;;10.25;9.75;;;;;11.88;62.39;100878.66;5059677;28;45570;-70
2023/04/25 05:42:10;;;;;;;;;10.75;10.75;;;;;11.82;62.38;100869.03;5062690;27;45453;-72
2023/04/25 05:44:36;;;;;;;;;11.00;5.75;;;;;11.84;62.14;100875.16;5063526;28;46367;-76
2023/04/25 05:47:01;;;;;;;;;11.75;10.25;;;;;11.83;62.11;100883.88;5066751;28;45412;-78
2023/04/25 05:49:27;;;;;;;;;14.25;11.50;;;;;11.83;62.52;100886.50;5054435;27;45777;-72
2023/04/25 05:51:52;;;;;;;;;19.75;12.50;;;;;11.89;62.41;100896.19;5065600;27;45386;-78
2023/04/25 05:54:18;;;;;;;;;13.75;10.25;;;;;11.78;62.29;100883.00;5071919;27;45723;-75
2023/04/25 05:56:43;;;;;;;;;15.50;13.00;;;;;11.87;62.27;100903.16;5075461;27;45564;-68
2023/04/25 05:59:12;;;;;;;;;15.75;11.75;;;;;11.80;62.01;100901.41;5068503;27;45505;-70
2023/04/25 06:01:38;;;;;;;;;14.50;13.00;;;;;11.78;62.52;100892.66;5055098;27;45588;-75
2023/04/25 06:04:04;;;;;;;;;11.75;8.00;;;;;11.87;62.41;100913.66;5055818;27;45639;-73
2023/04/25 06:06:36;;;;;;;;;14.00;13.25;;;;;11.87;62.58;100913.66;5056354;28;45895;-73
2023/04/25 06:09:02;;;;;;;;;16.75;12.75;;;;;11.89;62.64;100922.41;5071216;27;45701;-72
2023/04/25 06:11:28;;;;;;;;;18.75;15.00;;;;;11.88;62.52;100925.91;5061433;27;45817;-73
2023/04/25 06:13:54;;;;;;;;;14.50;12.50;;;;;11.86;62.59;100904.00;5060147;27;45868;-75
2023/04/25 06:16:20;;;;;;;;;17.00;14.00;;;;;11.90;62.46;100923.28;5089244;27;45381;-70
2023/04/25 06:18:49;;;;;;;;;17.50;14.75;;;;;11.92;62.53;100921.53;5059248;27;45786;-68
2023/04/25 06:21:14;;;;;;;;;12.00;11.25;;;;;11.83;62.89;100912.75;5058754;27;45497;-69
2023/04/25 06:23:41;;;;;;;;;17.75;14.00;;;;;11.90;62.30;100910.16;5059679;27;46969;-68
2023/04/25 06:26:07;;;;;;;;;9.75;9.25;;;;;11.94;62.56;100919.81;5071004;27;45355;-73
2023/04/25 06:28:32;;;;;;;;;15.00;12.00;;;;;11.85;62.44;100905.75;5062613;27;45418;-75
2023/04/25 06:30:58;;;;;;;;;14.75;10.25;;;;;11.93;62.21;100912.78;5072843;27;45419;-70
2023/04/25 06:33:24;;;;;;;;;13.00;12.50;;;;;12.02;62.27;100925.91;5060496;27;46164;-74
2023/04/25 06:35:49;;;;;;;;;15.00;13.50;;;;;11.85;62.35;100895.25;5062732;27;45367;-78
2023/04/25 06:38:15;;;;;;;;;14.75;12.50;;;;;12.03;61.69;100931.16;5075359;27;45505;-76
2023/04/25 06:40:41;;;;;;;;;9.50;6.25;;;;;12.05;61.87;100929.41;5067902;27;45417;-67
2023/04/25 06:43:06;;;;;;;;;9.00;7.50;;;;;12.10;61.20;100932.00;5063782;27;45609;-71
2023/04/25 06:45:35;;;;;;;;;11.00;9.50;;;;;12.13;60.66;100926.78;5062471;27;45476;-68
2023/04/25 06:48:04;;;;;;;;;10.50;10.25;;;;;12.08;60.75;100908.41;5077966;27;45499;-68
2023/04/25 06:50:31;;;;;;;;;9.50;9.25;;;;;12.19;60.67;100934.63;5082526;27;45452;-69
2023/04/25 06:52:57;;;;;;;;;11.00;9.00;;;;;12.17;60.34;100925.91;5066489;27;46336;-75
2023/04/25 06:55:27;;;;;;;;;11.25;10.50;;;;;12.26;60.21;100949.50;5065211;27;45562;-75
2023/04/25 06:57:56;;;;;;;;;13.50;8.25;;;;;12.21;60.19;100945.13;5098494;27;45482;-71
2023/04/25 07:00:22;;;;;;;;;10.25;10.25;;;;;12.23;60.02;100951.25;5058575;27;45650;-74
2023/04/25 07:02:47;;;;;;;;;11.75;10.00;;;;;12.23;59.75;100960.00;5060175;27;45367;-74
2023/04/25 07:05:13;;;;;;;;;11.25;10.00;;;;;12.27;59.77;100964.38;5061065;27;45422;-69
2023/04/25 07:07:39;;;;;;;;;7.25;7.25;;;;;12.18;59.52;100951.28;5055340;27;45506;-70
2023/04/25 07:10:05;;;;;;;;;8.75;7.25;;;;;12.28;59.59;100967.88;5058800;27;45490;-74
2023/04/25 07:12:31;;;;;;;;;9.00;5.50;;;;;12.39;59.44;100975.75;5059354;27;45527;-69
2023/04/25 07:14:56;;;;;;;;;11.00;10.25;;;;;12.41;59.23;100967.00;5064103;27;45641;-70
2023/04/25 07:17:22;;;;;;;;;16.00;10.25;;;;;12.46;59.24;100967.00;5055810;27;45686;-70
2023/04/25 07:19:48;;;;;;;;;16.00;12.25;;;;;12.29;58.98;100949.50;5096580;27;45583;-68
2023/04/25 07:22:13;;;;;;;;;9.50;9.50;;;;;12.43;58.78;100972.22;5100810;27;46011;-72
2023/04/25 07:24:39;;;;;;;;;5.25;5.25;;;;;12.26;59.38;100954.75;5067596;27;45527;-75
2023/04/25 07:27:04;;;;;;;;;14.00;12.75;;;;;12.29;59.49;100974.88;5072193;27;45695;-70
2023/04/25 07:29:31;;;;;;;;;19.75;18.50;;;;;12.19;59.29;100960.88;5067240;27;46038;-77
2023/04/25 07:31:57;;;;;;;;;19.25;16.50;;;;;12.20;59.43;100978.41;5084391;27;46760;-77
2023/04/25 07:34:22;;;;;;;;;18.25;14.25;;;;;12.23;60.29;100994.16;5066657;27;45533;-77
2023/04/25 07:36:50;;;;;;;;;16.00;14.25;;;;;12.20;59.58;100998.53;5062966;27;45463;-76
2023/04/25 07:39:16;;;;;;;;;19.75;17.25;;;;;12.17;59.74;101001.16;5071921;27;45378;-71
2023/04/25 07:41:42;;;;;;;;;17.50;14.75;;;;;12.13;59.59;101016.03;5065063;28;45901;-76
2023/04/25 07:44:08;;;;;;;;;18.50;14.25;;;;;12.11;59.65;101017.78;5059616;27;45481;-77
2023/04/25 07:46:34;;;;;;;;;23.25;20.25;;;;;12.06;59.85;101012.53;5070771;27;45504;-70
2023/04/25 07:49:00;;;;;;;;;21.25;20.75;;;;;12.06;59.97;101016.91;5062460;27;45429;-76
2023/04/25 07:51:29;;;;;;;;;23.50;21.25;;;;;12.03;60.06;101022.16;5085095;27;47803;-71
2023/04/25 07:53:55;;;;;;;;;28.00;21.25;;;;;11.92;59.66;101013.41;5064662;27;45442;-70
2023/04/25 07:56:21;;;;;;;;;23.25;20.75;;;;;12.00;59.81;101036.16;5056538;27;45503;-78
2023/04/25 07:58:47;;;;;;;;;20.00;18.00;;;;;11.95;59.35;101030.03;5070160;27;45706;-75
2023/04/25 08:01:16;;;;;;;;;29.75;26.00;;;;;11.99;59.04;101044.91;5074624;27;46793;-70
2023/04/25 08:03:42;;;;;;;;;25.25;21.75;;;;;11.97;59.31;101044.03;5091351;27;45463;-70
2023/04/25 08:06:08;;;;;;;;;25.25;20.50;;;;;12.07;59.14;101052.78;5063207;27;45458;-74
2023/04/25 08:08:33;;;;;;;;;25.25;20.00;;;;;12.12;58.27;101053.66;5066698;27;45486;-70
2023/04/25 08:10:59;;;;;;;;;22.75;19.25;;;;;12.16;57.92;101052.78;5068304;27;46234;-72
2023/04/25 08:13:25;;;;;;;;;22.00;18.25;;;;;12.28;57.66;101062.44;5057817;28;45601;-74
2023/04/25 08:15:50;;;;;;;;;26.25;18.00;;;;;12.48;57.48;101075.53;5060175;28;45410;-75
2023/04/25 08:18:16;;;;;;;;;23.75;20.25;;;;;12.31;56.62;101072.94;5060928;27;47049;-76
2023/04/25 08:20:41;;;;;;;;;24.75;17.00;;;;;12.29;56.28;101064.16;5075734;27;47947;-72
2023/04/25 08:23:07;;;;;;;;;20.00;17.25;;;;;12.57;55.89;101086.06;5062548;27;45518;-72
2023/04/25 08:25:33;;;;;;;;;18.00;14.50;;;;;12.77;55.78;101093.06;5068002;28;45800;-74
2023/04/25 08:27:59;;;;;;;;;18.50;17.25;;;;;12.89;54.64;101072.00;5067446;28;45364;-72
2023/04/25 08:30:25;;;;;;;;;19.50;15.75;;;;;13.02;54.52;101078.09;5073150;27;46481;-70
2023/04/25 08:32:50;;;;;;;;;16.50;13.50;;;;;13.23;53.82;101082.44;5072805;27;45362;-72
2023/04/25 08:35:17;;;;;;;;;14.50;12.00;;;;;13.34;53.51;101076.28;5067180;27;45701;-76
2023/04/25 08:37:42;;;;;;;;;14.75;13.50;;;;;13.39;53.40;101093.81;5079920;27;45509;-73
2023/04/25 08:40:14;;;;;;;;;15.25;13.00;;;;;13.38;53.22;101095.56;5074127;27;45510;-76
2023/04/25 08:42:44;;;;;;;;;21.50;17.75;;;;;13.42;52.61;101102.56;5069334;28;45447;-74
2023/04/25 08:45:11;;;;;;;;;20.00;14.00;;;;;13.36;52.76;101094.72;5070156;28;45480;-69
2023/04/25 08:47:39;;;;;;;;;13.75;11.00;;;;;13.43;53.00;101101.69;5070402;27;45738;-72
2023/04/25 08:50:07;;;;;;;;;16.50;13.25;;;;;13.33;52.61;101107.84;5062142;27;45827;-74
2023/04/25 08:52:37;;;;;;;;;18.00;14.25;;;;;13.23;53.18;101103.47;5067310;27;45461;-77
2023/04/25 08:55:13;;;;;;;;;16.00;12.50;;;;;13.19;53.20;101101.72;5057603;28;45515;-77
2023/04/25 08:57:42;;;;;;;;;14.75;12.25;;;;;13.25;52.55;101112.25;5062411;27;45441;-73
2023/04/25 09:00:12;;;;;;;;;13.00;10.25;;;;;13.11;52.46;101102.63;5053271;27;46301;-71
2023/04/25 09:02:40;;;;;;;;;15.00;13.25;;;;;13.01;51.93;101111.44;5087900;27;45589;-69
2023/04/25 09:05:06;;;;;;;;;18.00;16.50;;;;;12.94;52.48;101122.84;5067065;27;45452;-74
2023/04/25 09:07:32;;;;;;;;;19.00;17.50;;;;;12.76;52.91;101135.97;5060451;27;45458;-76
2023/04/25 09:10:01;;;;;;;;;21.50;14.75;;;;;12.49;53.58;101129.88;5055401;27;47140;-70
2023/04/25 09:12:28;;;;;;;;;14.25;11.50;;;;;12.33;54.07;101128.09;5054488;27;45483;-71
2023/04/25 09:15:04;;;;;;;;;16.25;12.75;;;;;12.40;56.46;101154.38;5054530;28;45494;-73
2023/04/25 09:17:30;;;;;;;;;18.50;15.25;;;;;12.56;55.58;101150.00;5054967;28;45472;-68
2023/04/25 09:20:04;;;;;;;;;16.00;13.25;;;;;12.69;55.98;101149.16;5069768;27;45856;-75
2023/04/25 09:22:30;;;;;;;;;17.25;14.00;;;;;12.87;56.12;101156.13;5062602;28;45433;-72
2023/04/25 09:24:56;;;;;;;;;21.50;15.75;;;;;13.04;55.30;101171.03;5049932;27;46562;-69
2023/04/25 09:27:26;;;;;;;;;12.25;11.50;;;;;13.10;54.88;101165.75;5066140;28;45913;-70
2023/04/25 09:29:58;;;;;;;;;11.25;8.50;;;;;13.25;54.80;101170.13;5082626;27;45578;-73
2023/04/25 09:32:24;;;;;;;;;9.50;8.25;;;;;13.25;55.06;101152.56;5071855;28;45335;-69
2023/04/25 09:34:55;;;;;;;;;14.75;9.75;;;;;13.46;54.13;101179.75;5074482;27;45710;-70
2023/04/25 09:37:24;;;;;;;;;16.50;12.00;;;;;13.39;53.55;101157.84;5071286;27;46445;-70
2023/04/25 09:40:05;;;;;;;;;15.00;13.50;;;;;13.46;53.07;101183.25;5068085;27;46223;-71
2023/04/25 09:42:31;;;;;;;;;13.75;10.75;;;;;13.31;53.18;101155.22;5059820;27;45351;-72
2023/04/25 09:44:58;;;;;;;;;12.25;9.75;;;;;13.46;53.35;101192.91;5072201;27;45425;-69
2023/04/25 09:47:26;;;;;;;;;13.75;9.75;;;;;13.42;53.42;101178.00;5077954;27;45462;-73
2023/04/25 09:49:58;;;;;;;;;14.25;11.50;;;;;13.45;52.52;101181.47;5084458;27;45749;-76
2023/04/25 09:52:24;;;;;;;;;13.50;10.25;;;;;13.49;52.34;101179.72;5068498;28;46511;-74
2023/04/25 09:54:51;;;;;;;;;15.00;11.00;;;;;13.49;51.78;101179.72;5099403;27;45670;-72
2023/04/25 09:57:24;;;;;;;;;15.00;10.75;;;;;13.58;52.39;101192.88;5060635;27;45560;-70
2023/04/25 09:59:53;;;;;;;;;13.00;12.25;;;;;13.51;51.43;101180.59;5069423;27;45939;-76
2023/04/25 10:02:24;;;;;;;;;13.00;10.00;;;;;13.51;52.26;101170.06;5069467;28;45541;-74
2023/04/25 10:04:54;;;;;;;;;11.25;10.00;;;;;13.73;52.13;101199.81;5069488;27;45842;-72
2023/04/25 10:07:29;;;;;;;;;14.00;10.75;;;;;13.75;51.29;101208.59;5067829;27;46018;-74
2023/04/25 10:10:03;;;;;;;;;16.75;12.75;;;;;13.57;51.27;101181.47;5067694;28;47053;-74
2023/04/25 10:12:30;;;;;;;;;19.00;14.25;;;;;13.57;51.13;101194.63;5072151;28;45431;-73
2023/04/25 10:14:58;;;;;;;;;14.50;11.25;;;;;13.66;52.40;101200.72;5073718;27;45539;-72
2023/04/25 10:17:24;;;;;;;;;16.00;15.50;;;;;13.68;51.18;101212.13;5074130;27;45296;-71
2023/04/25 10:19:51;;;;;;;;;14.00;10.50;;;;;13.53;50.89;101206.03;5074071;27;45496;-72
2023/04/25 10:22:37;;;;;;;;;14.75;12.00;;;;;13.68;51.90;101207.75;5091187;27;45884;-73
2023/04/25 10:25:04;;;;;;;;;18.25;17.25;;;;;13.81;51.01;101203.31;5077593;27;45475;-73
2023/04/25 10:27:30;;;;;;;;;26.00;23.25;;;;;13.67;51.12;101198.09;5077548;27;45381;-69
2023/04/25 10:30:05;;;;;;;;;17.00;12.25;;;;;13.59;52.73;101202.50;5076151;27;46135;-71
2023/04/25 10:32:35;;;;;;;;;14.25;12.00;;;;;13.32;51.40;101180.66;5088121;27;45439;-72
2023/04/25 10:35:24;;;;;;;;;11.00;10.50;;;;;13.38;52.63;101195.53;5088376;27;45400;-71
2023/04/25 10:38:16;;;;;;;;;15.00;11.25;;;;;13.46;52.34;101206.94;5076562;28;45285;-72
2023/04/25 10:41:03;;;;;;;;;16.00;12.25;;;;;13.40;52.56;101212.19;5068658;28;47811;-71
2023/04/25 10:43:38;;;;;;;;;18.50;15.50;;;;;13.43;53.24;101222.72;5075294;27;45429;-72
2023/04/25 10:46:16;;;;;;;;;18.75;16.00;;;;;13.44;52.13;101213.06;5077279;27;45481;-72
2023/04/25 10:49:00;;;;;;;;;14.25;11.25;;;;;13.35;51.67;101219.22;5094643;27;45467;-77
2023/04/25 10:51:32;;;;;;;;;14.25;12.75;;;;;13.27;51.93;101219.25;5068058;27;46904;-72
2023/04/25 10:53:59;;;;;;;;;17.00;12.75;;;;;13.24;51.66;101224.47;5071213;28;45403;-70
2023/04/25 10:56:28;;;;;;;;;11.25;9.00;;;;;13.25;52.05;101220.09;5069752;27;46671;-72
2023/04/25 10:59:08;;;;;;;;;12.75;9.00;;;;;13.44;50.21;101215.72;5072659;27;45608;-71
2023/04/25 11:01:41;;;;;;;;;8.50;8.50;;;;;13.61;51.16;101226.19;5073292;27;45685;-70
2023/04/25 11:04:23;;;;;;;;;20.25;14.00;;;;;13.52;50.21;101206.91;5067731;28;45846;-72
2023/04/25 11:06:55;;;;;;;;;26.75;20.75;;;;;13.57;50.15;101230.56;5067836;27;45540;-73
2023/04/25 11:09:24;;;;;;;;;12.75;9.25;;;;;13.36;50.38;101228.88;5071432;27;45516;-76
2023/04/25 11:11:58;;;;;;;;;13.25;9.25;;;;;13.19;49.35;101233.25;5079950;27;45976;-79
2023/04/25 11:14:24;;;;;;;;;8.50;8.50;;;;;13.04;49.45;101227.09;5077025;27;45536;-75
2023/04/25 11:16:57;;;;;;;;;11.75;8.25;;;;;13.00;50.10;101220.09;5074410;27;45551;-74
2023/04/25 11:19:23;;;;;;;;;10.00;7.50;;;;;13.05;50.53;101225.34;5070695;27;45338;-71